Time;durP1;ratioP1;P1;durP2;ratioP2;P2;SDS_P1;SDS_P2;PMS_P1;PMS_P2;Temp;Humidity;BMP_temperature;BMP_pressure;BME280_temperature;BME280_humidity;BME280_pressure;Samples;Min_cycle;Max_cycle;Signal;HPM_P1;HPM_P2
2021/08/30 00:00:38;;;;;;;8.82;4.78;;;;;;;19.13;77.78;95896.56;5052609;28;20029;-54
2021/08/30 00:03:04;;;;;;;7.57;4.35;;;;;;;19.13;78.25;95901.00;5052220;28;20028;-59
2021/08/30 00:05:29;;;;;;;7.63;4.50;;;;;;;19.12;77.82;95897.53;5052712;28;20029;-59
2021/08/30 00:07:55;;;;;;;7.03;4.00;;;;;;;19.09;76.54;95887.19;5052707;28;20025;-57
2021/08/30 00:10:20;;;;;;;7.10;4.78;;;;;;;19.12;77.81;95886.06;5052488;28;20029;-58
2021/08/30 00:12:46;;;;;;;5.97;4.38;;;;;;;19.16;77.92;95892.78;5052334;28;20029;-57
2021/08/30 00:15:14;;;;;;;4.93;3.72;;;;;;;19.14;77.32;95879.66;5052707;28;20040;-56
2021/08/30 00:17:41;;;;;;;4.97;3.72;;;;;;;18.98;77.01;95874.78;5053716;28;20028;-57
2021/08/30 00:20:14;;;;;;;7.40;3.63;;;;;;;18.87;78.04;95877.47;5056316;28;20485;-56
2021/08/30 00:22:40;;;;;;;4.55;3.40;;;;;;;18.78;78.21;95877.25;5055561;28;20102;-58
2021/08/30 00:25:06;;;;;;;4.95;3.72;;;;;;;18.71;78.48;95877.88;5056378;28;20017;-54
2021/08/30 00:27:31;;;;;;;6.88;4.13;;;;;;;18.63;78.91;95882.00;5056064;28;20025;-54
2021/08/30 00:29:57;;;;;;;6.75;4.60;;;;;;;18.61;79.35;95885.75;5055706;28;20051;-57
2021/08/30 00:32:23;;;;;;;7.55;4.18;;;;;;;18.62;79.51;95882.13;5055708;28;20094;-57
2021/08/30 00:34:49;;;;;;;8.98;4.05;;;;;;;18.66;79.73;95889.69;5056134;28;20028;-55
2021/08/30 00:37:15;;;;;;;8.45;4.32;;;;;;;18.72;78.66;95898.94;5055837;28;20025;-53
2021/08/30 00:39:40;;;;;;;6.00;4.43;;;;;;;18.80;79.20;95895.69;5055559;28;20073;-58
2021/08/30 00:42:06;;;;;;;7.75;4.45;;;;;;;18.73;78.68;95894.50;5055886;28;20048;-55
2021/08/30 00:44:31;;;;;;;8.68;4.30;;;;;;;18.74;78.93;95891.72;5055836;28;20166;-56
2021/08/30 00:46:57;;;;;;;5.65;4.40;;;;;;;18.76;79.32;95886.31;5055469;28;20040;-53
2021/08/30 00:49:23;;;;;;;7.65;4.47;;;;;;;18.66;79.37;95886.22;5055739;28;20052;-56
2021/08/30 00:51:52;;;;;;;6.60;4.80;;;;;;;18.67;79.60;95885.25;5055743;28;20426;-56
2021/08/30 00:54:18;;;;;;;7.20;4.65;;;;;;;18.68;79.72;95887.78;5055745;28;20021;-56
2021/08/30 00:56:45;;;;;;;8.32;5.22;;;;;;;18.69;79.64;95889.44;5037071;28;20425;-56
2021/08/30 00:59:11;;;;;;;6.72;4.93;;;;;;;18.68;79.76;95892.22;5055256;28;20371;-58
2021/08/30 01:01:37;;;;;;;7.63;4.40;;;;;;;18.74;79.41;95896.16;5055490;28;20104;-56
2021/08/30 01:04:06;;;;;;;5.90;5.15;;;;;;;18.87;79.94;95896.84;5055395;28;20115;-57
2021/08/30 01:06:45;;;;;;;15.63;5.40;;;;;;;18.93;79.62;95880.47;5055068;28;20040;-57
2021/08/30 01:09:40;;;;;;;6.35;4.47;;;;;;;18.98;78.62;95892.47;5055509;28;20103;-56
2021/08/30 01:12:19;;;;;;;13.65;4.53;;;;;;;18.89;78.99;95886.13;5055252;28;20386;-57
2021/08/30 01:15:06;;;;;;;10.85;4.78;;;;;;;18.91;78.75;95881.56;5055326;28;20043;-57
2021/08/30 01:17:36;;;;;;;6.93;4.60;;;;;;;18.89;79.27;95879.03;5054513;28;20083;-56
2021/08/30 01:20:17;;;;;;;8.23;4.70;;;;;;;18.96;78.57;95887.31;5055268;28;20029;-59
2021/08/30 01:22:45;;;;;;;6.05;4.35;;;;;;;19.02;78.75;95883.34;5055143;28;20294;-55
2021/08/30 01:25:16;;;;;;;6.72;3.80;;;;;;;19.05;78.61;95886.53;5054712;28;20029;-59
2021/08/30 01:27:46;;;;;;;7.30;3.60;;;;;;;19.09;78.27;95883.69;5035130;28;20025;-57
2021/08/30 01:30:16;;;;;;;4.35;3.70;;;;;;;19.13;78.95;95891.25;5036310;28;20056;-56
2021/08/30 01:32:45;;;;;;;8.13;4.38;;;;;;;19.15;78.42;95883.16;5055008;28;20036;-55
2021/08/30 01:35:15;;;;;;;9.05;3.40;;;;;;;19.17;78.40;95895.31;5054908;28;20421;-54
2021/08/30 01:37:43;;;;;;;7.97;3.85;;;;;;;19.23;77.95;95901.09;5054322;28;20029;-54
2021/08/30 01:40:12;;;;;;;11.85;3.78;;;;;;;19.22;78.30;95910.00;5054748;28;20021;-55
2021/08/30 01:42:43;;;;;;;7.72;4.13;;;;;;;19.20;78.00;95907.47;5054470;28;20518;-57
2021/08/30 01:45:12;;;;;;;4.30;3.65;;;;;;;19.24;77.64;95908.06;5054411;28;20028;-59
2021/08/30 01:47:39;;;;;;;6.05;3.17;;;;;;;19.23;77.92;95909.88;5054726;28;20580;-59
2021/08/30 01:50:06;;;;;;;6.32;2.83;;;;;;;19.10;77.13;95902.09;5054598;28;20029;-56
2021/08/30 01:52:37;;;;;;;11.55;3.10;;;;;;;19.03;77.39;95893.78;5054389;28;20040;-57
2021/08/30 02:00:45;;;;;;;7.32;2.28;;;;;;;18.80;77.51;95909.78;5054413;28;20033;-58
2021/08/30 02:03:12;;;;;;;5.68;2.30;;;;;;;18.69;77.51;95908.00;5054442;28;20033;-57
2021/08/30 02:05:38;;;;;;;3.10;2.17;;;;;;;18.70;78.04;95911.50;5053586;28;20123;-57
2021/08/30 02:08:05;;;;;;;11.50;1.90;;;;;;;18.63;78.01;95910.31;5054295;28;20116;-57
2021/08/30 02:10:31;;;;;;;3.78;2.05;;;;;;;18.52;78.49;95905.88;5054266;28;20032;-58
2021/08/30 02:12:57;;;;;;;4.65;1.38;;;;;;;18.37;78.59;95913.22;5054348;28;20020;-58
2021/08/30 02:15:22;;;;;;;5.63;1.90;;;;;;;18.34;78.98;95919.63;5053788;28;20021;-59
2021/08/30 02:17:53;;;;;;;5.00;2.13;;;;;;;18.36;78.96;95924.78;5054020;28;20051;-57
2021/08/30 02:20:21;;;;;;;;;;;;;;;18.46;78.89;95924.88;5054736;28;20100;-56
2021/08/30 02:22:48;;;;;;;1.92;1.40;;;;;;;18.43;78.33;95929.44;5054209;28;19944;-57
2021/08/30 02:25:18;;;;;;;4.07;1.90;;;;;;;18.48;77.78;95928.25;5053677;28;20104;-57
2021/08/30 02:27:48;;;;;;;4.95;1.65;;;;;;;18.35;78.01;95923.94;5054011;28;20108;-56
2021/08/30 02:30:24;;;;;;;7.00;1.80;;;;;;;18.30;78.33;95920.81;5053997;28;20092;-55
2021/08/30 02:32:52;;;;;;;3.53;2.08;;;;;;;18.21;78.38;95926.84;5053901;28;20048;-58
2021/08/30 02:35:23;;;;;;;5.50;2.00;;;;;;;18.04;78.43;95921.91;5053510;28;20036;-60
2021/08/30 02:37:51;;;;;;;7.65;2.47;;;;;;;18.06;78.44;95922.59;5053750;28;20029;-55
2021/08/30 02:40:18;;;;;;;5.15;2.88;;;;;;;18.02;78.48;95923.81;5053448;28;20029;-57
2021/08/30 02:42:46;;;;;;;3.50;2.92;;;;;;;17.97;77.78;95933.06;5053617;28;20072;-51
2021/08/30 02:45:14;;;;;;;3.83;3.35;;;;;;;17.97;78.22;95933.06;5053209;28;20471;-56
2021/08/30 02:47:41;;;;;;;4.03;3.20;;;;;;;17.93;78.14;95933.31;5053498;28;20029;-54
2021/08/30 02:50:08;;;;;;;6.20;4.53;;;;;;;17.85;77.98;95929.56;5053351;28;20489;-57
2021/08/30 02:52:35;;;;;;;6.80;4.93;;;;;;;17.72;78.10;95943.72;5053288;28;20028;-54
2021/08/30 02:55:01;;;;;;;10.13;4.75;;;;;;;17.71;78.51;95951.78;5053162;28;20032;-56
2021/08/30 02:57:28;;;;;;;9.27;5.40;;;;;;;17.70;77.95;95953.56;5053405;28;20104;-56
2021/08/30 02:59:55;;;;;;;9.73;5.70;;;;;;;17.72;78.07;95953.44;5053275;28;20029;-56
2021/08/30 03:02:24;;;;;;;6.15;4.88;;;;;;;17.69;77.78;95954.53;5052918;28;20075;-56
2021/08/30 03:04:51;;;;;;;9.25;5.45;;;;;;;17.73;78.47;95958.63;5053234;28;20064;-56
2021/08/30 03:07:17;;;;;;;11.20;5.88;;;;;;;17.60;77.50;95966.66;5053357;28;20470;-57
2021/08/30 03:09:43;;;;;;;8.45;6.00;;;;;;;17.53;76.94;95971.59;5053254;28;20025;-58
2021/08/30 03:12:11;;;;;;;9.57;5.90;;;;;;;17.43;77.81;95967.94;5052794;28;20470;-54
2021/08/30 03:14:39;;;;;;;9.10;5.78;;;;;;;17.30;77.70;95968.00;5052886;28;20466;-57
2021/08/30 03:17:10;;;;;;;8.57;5.22;;;;;;;17.34;77.85;95972.09;5053069;28;20024;-58
2021/08/30 03:19:39;;;;;;;7.07;5.35;;;;;;;17.33;77.02;95969.59;5053161;28;20094;-57
2021/08/30 03:22:06;;;;;;;14.38;6.10;;;;;;;17.35;77.78;95970.31;5052453;28;20364;-55
2021/08/30 03:24:32;;;;;;;9.32;5.93;;;;;;;17.40;78.15;95970.81;5034196;28;20055;-55
2021/08/30 03:26:59;;;;;;;13.75;4.90;;;;;;;17.29;76.71;95961.91;5052643;28;20040;-64
2021/08/30 03:29:25;;;;;;;5.13;4.20;;;;;;;17.26;76.26;95977.97;5052842;28;20025;-56
2021/08/30 03:31:53;;;;;;;8.23;5.45;;;;;;;17.04;76.76;95976.88;5052896;28;20033;-56
2021/08/30 03:34:21;;;;;;;7.72;4.43;;;;;;;16.92;76.95;95975.16;5050669;28;20063;-53
2021/08/30 03:36:47;;;;;;;6.20;3.83;;;;;;;16.83;76.94;95971.38;5052493;28;20032;-59
2021/08/30 03:39:14;;;;;;;6.07;3.97;;;;;;;16.66;77.29;95976.06;5052761;28;20028;-57
2021/08/30 03:41:41;;;;;;;5.18;3.17;;;;;;;16.55;77.60;95981.25;5052604;28;20049;-54
2021/08/30 03:44:09;;;;;;;11.48;3.80;;;;;;;16.40;77.98;95996.38;5052515;28;20033;-57
2021/08/30 03:46:37;;;;;;;5.57;3.85;;;;;;;16.18;79.11;96000.53;5051971;28;20068;-57
2021/08/30 03:49:03;;;;;;;5.35;3.80;;;;;;;16.18;79.71;95995.25;5051089;28;20024;-58
2021/08/30 03:51:30;;;;;;;6.85;3.40;;;;;;;16.16;79.17;96008.53;5050910;28;20462;-59
2021/08/30 03:53:56;;;;;;;8.57;3.67;;;;;;;16.13;79.42;96014.03;5054383;28;20386;-54
2021/08/30 03:56:23;;;;;;;10.38;3.55;;;;;;;16.22;79.53;96025.75;5054974;28;20025;-59
2021/08/30 03:58:49;;;;;;;4.70;3.47;;;;;;;16.34;79.11;96023.22;5055167;28;20027;-55
2021/08/30 04:01:23;;;;;;;4.68;3.05;;;;;;;16.38;77.76;96030.78;5054897;28;20066;-55
2021/08/30 04:03:51;;;;;;;4.88;3.50;;;;;;;16.44;77.83;96033.97;5056608;28;20100;-53
2021/08/30 04:06:16;;;;;;;4.88;3.53;;;;;;;16.44;77.89;96040.09;5056473;28;20147;-55
2021/08/30 04:08:42;;;;;;;6.55;3.30;;;;;;;16.40;77.67;96033.31;5056288;28;20115;-57
2021/08/30 04:11:09;;;;;;;7.32;3.40;;;;;;;16.44;77.78;96034.81;5056566;28;20056;-59
2021/08/30 04:13:36;;;;;;;6.30;3.58;;;;;;;16.44;77.26;96039.25;5056627;28;20021;-54
2021/08/30 04:16:02;;;;;;;5.53;3.17;;;;;;;16.39;76.55;96037.78;5056378;28;20017;-60
2021/08/30 04:18:27;;;;;;;6.22;3.70;;;;;;;16.41;76.59;96040.31;5056310;28;20036;-54
2021/08/30 04:20:53;;;;;;;3.83;3.45;;;;;;;16.48;77.14;96038.94;5056357;28;20032;-55
2021/08/30 04:23:18;;;;;;;5.18;3.00;;;;;;;16.49;76.73;96039.75;5056239;28;20021;-57
2021/08/30 04:25:44;;;;;;;4.38;3.00;;;;;;;16.59;77.03;96040.81;5056135;28;20032;-53
2021/08/30 04:28:09;;;;;;;7.88;3.13;;;;;;;16.66;75.74;96031.50;5056230;28;20065;-56
2021/08/30 04:30:36;;;;;;;4.10;3.50;;;;;;;16.68;75.41;96040.16;5056063;28;20100;-56
2021/08/30 04:33:02;;;;;;;5.35;4.00;;;;;;;16.74;75.73;96036.22;5056169;28;20025;-55
2021/08/30 04:35:27;;;;;;;3.97;3.45;;;;;;;16.92;75.33;96033.25;5056070;28;20071;-57
2021/08/30 04:37:53;;;;;;;6.03;3.45;;;;;;;17.23;73.82;96028.41;5056045;28;20169;-52
2021/08/30 04:40:19;;;;;;;4.43;3.33;;;;;;;17.56;72.49;96033.97;5056025;28;20421;-57
2021/08/30 04:42:44;;;;;;;3.90;2.85;;;;;;;17.80;71.06;96039.22;5055855;28;20045;-57
2021/08/30 04:45:10;;;;;;;7.38;4.00;;;;;;;18.10;69.73;96044.97;5055947;28;20029;-55
2021/08/30 04:47:36;;;;;;;4.38;2.78;;;;;;;18.43;69.35;96048.59;5055738;28;20037;-60
2021/08/30 04:50:04;;;;;;;9.05;2.92;;;;;;;18.89;68.97;96051.25;5055719;28;20108;-59
2021/08/30 04:52:29;;;;;;;3.53;3.03;;;;;;;19.13;67.40;96049.41;5055584;28;20025;-55
2021/08/30 04:54:55;;;;;;;4.25;2.90;;;;;;;19.40;65.32;96054.31;5055784;28;20078;-57
2021/08/30 04:57:21;;;;;;;5.32;2.50;;;;;;;19.53;63.85;96055.94;5055624;28;20033;-57
2021/08/30 04:59:46;;;;;;;7.15;3.38;;;;;;;19.69;64.15;96069.63;5055684;28;20025;-58
2021/08/30 05:02:12;;;;;;;5.68;3.00;;;;;;;19.88;63.58;96068.09;5037711;28;20382;-56
2021/08/30 05:04:38;;;;;;;3.50;2.72;;;;;;;19.56;64.39;96063.63;5055155;28;20036;-56
2021/08/30 05:07:03;;;;;;;5.22;3.92;;;;;;;19.49;63.98;96068.63;5055374;28;20021;-57
2021/08/30 05:09:29;;;;;;;4.63;3.15;;;;;;;19.79;64.20;96067.06;5055591;28;20478;-53
2021/08/30 05:11:55;;;;;;;7.82;3.88;;;;;;;20.14;63.01;96067.72;5055386;28;20486;-59
2021/08/30 05:14:21;;;;;;;4.50;3.67;;;;;;;20.42;60.93;96069.88;5055267;28;20074;-57
2021/08/30 05:16:47;;;;;;;7.55;3.95;;;;;;;20.80;59.88;96063.03;5055414;28;20096;-61
2021/08/30 05:19:12;;;;;;;9.65;4.20;;;;;;;20.79;58.94;96064.03;5055154;28;20020;-56
2021/08/30 05:21:38;;;;;;;5.63;3.97;;;;;;;20.90;60.68;96062.28;5055182;28;20429;-58
2021/08/30 05:24:07;;;;;;;5.22;3.42;;;;;;;21.04;57.96;96075.19;5055193;28;20029;-59
2021/08/30 05:26:33;;;;;;;5.40;3.67;;;;;;;20.77;58.33;96058.00;5054993;28;20039;-55
2021/08/30 05:28:59;;;;;;;5.20;3.70;;;;;;;20.81;58.51;96054.09;5055060;28;20056;-58
2021/08/30 05:31:25;;;;;;;5.75;3.75;;;;;;;20.89;58.31;96069.34;5054880;28;20060;-59
2021/08/30 05:33:50;;;;;;;6.85;3.30;;;;;;;21.04;57.45;96066.38;5055020;28;20431;-54
2021/08/30 05:36:16;;;;;;;5.15;4.18;;;;;;;21.11;57.95;96069.31;5054930;28;20037;-56
2021/08/30 05:38:42;;;;;;;4.75;3.35;;;;;;;21.36;56.11;96069.78;5054810;28;20100;-58
2021/08/30 05:41:07;;;;;;;6.25;3.88;;;;;;;21.27;56.02;96064.31;5054599;28;20049;-53
2021/08/30 05:43:34;;;;;;;6.63;4.18;;;;;;;20.76;57.65;96066.94;5054747;28;20057;-55
2021/08/30 05:46:00;;;;;;;8.68;4.25;;;;;;;20.66;60.04;96076.69;5054772;28;20021;-54
2021/08/30 05:48:26;;;;;;;4.22;3.83;;;;;;;20.79;58.19;96079.97;5054696;28;20102;-56
2021/08/30 05:50:51;;;;;;;7.32;4.57;;;;;;;20.77;57.78;96073.94;5054535;28;20395;-57
2021/08/30 05:53:19;;;;;;;9.13;5.00;;;;;;;20.86;58.93;96080.25;5054543;28;20021;-55
2021/08/30 05:55:44;;;;;;;5.78;4.63;;;;;;;20.96;56.80;96083.00;5054511;28;20025;-59
2021/08/30 05:58:10;;;;;;;7.13;4.85;;;;;;;20.75;57.84;96080.38;5054552;28;20021;-52
2021/08/30 06:00:36;;;;;;;7.50;4.30;;;;;;;20.37;57.87;96080.03;5054309;28;20032;-56
2021/08/30 06:03:02;;;;;;;6.75;4.55;;;;;;;20.28;59.58;96077.19;5054393;28;20032;-56
2021/08/30 06:05:27;;;;;;;9.13;5.00;;;;;;;20.17;60.01;96066.66;5054338;28;20043;-57
2021/08/30 06:07:54;;;;;;;8.00;5.20;;;;;;;20.22;61.06;96084.84;5054444;28;20159;-56
2021/08/30 06:10:20;;;;;;;8.38;4.78;;;;;;;20.10;59.64;96079.59;5054297;28;20116;-57
2021/08/30 06:12:45;;;;;;;6.07;4.82;;;;;;;19.88;60.67;96078.72;5054158;28;20382;-57
2021/08/30 06:15:11;;;;;;;7.22;5.20;;;;;;;19.91;61.54;96080.25;5053241;28;20029;-54
2021/08/30 06:17:37;;;;;;;8.48;4.78;;;;;;;19.86;60.08;96074.50;5054257;28;20021;-58
2021/08/30 06:20:03;;;;;;;4.57;4.15;;;;;;;19.68;61.22;96081.19;5036164;28;20466;-56
2021/08/30 06:22:28;;;;;;;6.65;5.05;;;;;;;19.72;60.91;96075.66;5054134;28;20023;-56
2021/08/30 06:24:54;;;;;;;6.82;4.63;;;;;;;19.84;62.71;96082.59;5053960;28;20108;-57
2021/08/30 06:27:20;;;;;;;8.05;5.20;;;;;;;19.97;60.96;96089.53;5053852;28;20017;-55
2021/08/30 06:29:48;;;;;;;7.22;5.30;;;;;;;19.87;60.41;96090.28;5053825;28;20044;-56
2021/08/30 06:32:14;;;;;;;6.97;5.32;;;;;;;19.70;61.69;96081.06;5053762;28;20032;-52
2021/08/30 06:34:40;;;;;;;8.70;5.20;;;;;;;19.59;61.23;96084.59;5053810;28;20104;-56
2021/08/30 06:37:05;;;;;;;11.63;5.30;;;;;;;19.34;62.32;96076.00;5053792;28;20435;-59
2021/08/30 06:39:31;;;;;;;7.50;5.55;;;;;;;19.26;63.58;96073.97;5053934;28;20028;-55
2021/08/30 06:41:57;;;;;;;9.65;5.10;;;;;;;19.30;63.76;96080.72;5053367;28;20060;-54
2021/08/30 06:44:23;;;;;;;9.43;5.40;;;;;;;19.50;65.33;96082.72;5053740;28;20056;-56
2021/08/30 06:46:48;;;;;;;9.45;5.18;;;;;;;19.69;63.32;96082.06;5053629;28;20352;-57
2021/08/30 06:49:14;;;;;;;7.38;4.38;;;;;;;19.80;61.89;96097.06;5053447;28;20083;-56
2021/08/30 06:51:40;;;;;;;6.47;4.82;;;;;;;19.66;61.22;96087.63;5053330;28;20024;-59
2021/08/30 06:54:05;;;;;;;8.70;4.72;;;;;;;19.68;62.24;96090.97;5053385;28;20031;-58
2021/08/30 06:56:31;;;;;;;10.10;5.55;;;;;;;19.69;61.79;96092.66;5053528;28;20048;-58
2021/08/30 06:58:57;;;;;;;8.02;4.65;;;;;;;19.59;61.79;96086.44;5053413;28;20025;-56
2021/08/30 07:01:22;;;;;;;7.75;4.57;;;;;;;19.46;61.82;96095.38;5053299;28;20056;-57
2021/08/30 07:03:48;;;;;;;6.28;4.95;;;;;;;19.54;61.88;96092.13;5053209;28;20025;-56
2021/08/30 07:06:14;;;;;;;6.43;4.80;;;;;;;19.52;62.90;96096.69;5053326;28;20079;-59
2021/08/30 07:08:40;;;;;;;7.10;4.65;;;;;;;19.65;62.61;96102.69;5053228;28;20378;-54
2021/08/30 07:11:06;;;;;;;6.88;5.05;;;;;;;19.65;61.72;96105.31;5053185;28;20021;-54
2021/08/30 07:13:32;;;;;;;6.80;4.85;;;;;;;19.46;61.64;96100.69;5053288;28;20100;-59
2021/08/30 07:15:57;;;;;;;6.18;4.45;;;;;;;19.59;62.19;96103.19;5053154;28;20451;-58
2021/08/30 07:18:24;;;;;;;6.57;4.65;;;;;;;19.68;63.23;96105.06;5053010;28;20020;-54
2021/08/30 07:20:50;;;;;;;5.47;4.20;;;;;;;19.85;61.51;96107.31;5053082;28;20391;-55
2021/08/30 07:23:17;;;;;;;7.15;4.68;;;;;;;19.96;61.53;96107.28;5053049;28;20028;-57
2021/08/30 07:25:43;;;;;;;7.85;4.38;;;;;;;19.95;61.06;96101.13;5052857;28;20021;-57
2021/08/30 07:28:09;;;;;;;5.00;4.20;;;;;;;19.96;61.42;96107.28;5052820;28;20028;-55
2021/08/30 07:30:34;;;;;;;6.97;4.20;;;;;;;20.04;61.53;96107.50;5052899;28;20021;-58
2021/08/30 07:33:00;;;;;;;6.45;4.70;;;;;;;20.18;63.25;96116.13;5053052;28;20466;-58
2021/08/30 07:35:27;;;;;;;8.50;4.32;;;;;;;20.40;61.84;96112.50;5052976;28;20029;-57
2021/08/30 07:37:53;;;;;;;7.18;3.95;;;;;;;20.69;60.30;96114.47;5052928;28;20108;-55
2021/08/30 07:40:19;;;;;;;5.18;3.72;;;;;;;20.97;59.04;96111.25;5052939;28;20029;-56
2021/08/30 07:42:45;;;;;;;6.00;4.10;;;;;;;21.03;59.23;96109.88;5052635;28;20041;-56
2021/08/30 07:45:11;;;;;;;5.63;3.85;;;;;;;20.92;59.38;96116.97;5052819;28;20029;-56
2021/08/30 07:47:37;;;;;;;5.72;3.95;;;;;;;20.77;58.25;96127.06;5052879;28;20025;-55
2021/08/30 07:50:05;;;;;;;9.07;4.00;;;;;;;20.79;61.04;96127.81;5052833;28;20036;-57
2021/08/30 07:52:31;;;;;;;3.90;3.28;;;;;;;20.80;59.83;96128.66;5052951;28;20394;-53
2021/08/30 07:54:56;;;;;;;5.00;3.67;;;;;;;20.83;59.84;96128.38;5052843;28;20025;-54
2021/08/30 07:57:23;;;;;;;5.00;3.67;;;;;;;20.99;60.28;96135.91;5052767;28;20100;-58
2021/08/30 07:59:48;;;;;;;4.00;2.92;;;;;;;21.24;59.26;96139.06;5052769;28;20502;-57
2021/08/30 08:02:14;;;;;;;6.65;3.65;;;;;;;21.46;60.53;96132.66;5052721;28;20105;-57
2021/08/30 08:04:39;;;;;;;5.78;3.97;;;;;;;21.63;58.64;96137.47;5052595;28;20437;-57
2021/08/30 08:07:05;;;;;;;3.90;3.45;;;;;;;21.48;59.60;96139.66;5052488;28;20044;-59
2021/08/30 08:09:31;;;;;;;5.38;3.90;;;;;;;21.65;58.97;96136.38;5052667;28;20024;-59
2021/08/30 08:11:56;;;;;;;5.00;3.50;;;;;;;21.83;57.43;96136.53;5052784;28;20061;-59
2021/08/30 08:14:22;;;;;;;4.22;3.47;;;;;;;21.88;57.04;96130.78;5052569;28;20064;-58
2021/08/30 08:16:48;;;;;;;4.85;3.92;;;;;;;22.13;57.85;96141.03;5051940;28;20033;-54
2021/08/30 08:19:15;;;;;;;6.93;3.45;;;;;;;22.34;57.26;96132.91;5052566;28;20033;-58
2021/08/30 08:21:41;;;;;;;4.38;3.17;;;;;;;22.41;55.25;96136.66;5052560;28;20036;-56
2021/08/30 08:24:09;;;;;;;5.45;3.80;;;;;;;22.60;55.47;96134.97;5052494;28;20033;-58
2021/08/30 08:26:35;;;;;;;5.70;3.63;;;;;;;22.83;56.83;96137.28;5052384;28;20409;-58
2021/08/30 08:29:01;;;;;;;7.63;4.00;;;;;;;22.92;53.98;96140.91;5052339;28;20075;-56
2021/08/30 08:31:27;;;;;;;4.25;3.38;;;;;;;22.95;52.89;96137.97;5052269;28;20033;-56
2021/08/30 08:33:53;;;;;;;6.05;3.67;;;;;;;22.95;54.39;96143.28;5052459;28;20102;-59
2021/08/30 08:36:20;;;;;;;6.50;3.80;;;;;;;23.01;53.33;96142.72;5052352;28;20413;-57
2021/08/30 08:38:46;;;;;;;5.47;3.60;;;;;;;23.12;54.62;96141.69;5053565;28;20036;-58
2021/08/30 08:41:12;;;;;;;4.65;3.80;;;;;;;23.03;54.58;96145.22;5055710;28;20394;-55
2021/08/30 08:43:39;;;;;;;11.82;3.92;;;;;;;23.05;52.78;96146.75;5056235;28;20343;-56
2021/08/30 08:46:04;;;;;;;4.25;3.00;;;;;;;23.08;53.89;96148.28;5056035;28;20060;-58
2021/08/30 08:48:31;;;;;;;4.45;3.80;;;;;;;23.16;52.57;96137.75;5055960;28;20493;-59
2021/08/30 08:50:56;;;;;;;6.85;5.35;;;;;;;23.36;51.75;96140.31;5055687;28;20103;-57
2021/08/30 08:53:22;;;;;;;5.45;4.00;;;;;;;23.33;51.79;96135.28;5055684;28;20111;-53
2021/08/30 08:55:48;;;;;;;7.85;4.00;;;;;;;23.29;51.97;96139.19;5055987;28;20025;-57
2021/08/30 08:58:20;;;;;;;5.63;3.65;;;;;;;23.26;50.88;96144.88;5055585;28;20028;-56
2021/08/30 09:01:15;;;;;;;4.18;3.40;;;;;;;23.16;51.16;96140.41;5055588;28;20075;-57
2021/08/30 09:03:53;;;;;;;16.40;4.05;;;;;;;23.26;51.59;96142.19;5055567;28;20053;-57
2021/08/30 09:06:43;;;;;;;14.18;3.63;;;;;;;23.42;51.29;96145.06;5055683;28;20036;-59
2021/08/30 09:09:14;;;;;;;6.57;4.13;;;;;;;23.37;51.55;96139.34;5055556;28;20056;-59
2021/08/30 09:11:45;;;;;;;7.68;4.18;;;;;;;23.40;52.60;96141.72;5037653;28;20430;-58
2021/08/30 09:14:19;;;;;;;6.70;3.90;;;;;;;23.39;51.65;96140.03;5055370;28;20021;-57
2021/08/30 09:17:00;;;;;;;5.03;3.90;;;;;;;23.45;51.04;96152.78;5055346;28;20029;-57
2021/08/30 09:19:27;;;;;;;3.72;3.33;;;;;;;23.40;51.20;96147.06;5055477;28;20374;-56
2021/08/30 09:21:53;;;;;;;5.38;3.60;;;;;;;23.45;52.80;96143.94;5055378;28;20383;-56
2021/08/30 09:24:21;;;;;;;7.20;3.75;;;;;;;23.43;52.78;96140.56;5055240;28;20024;-57
2021/08/30 09:27:10;;;;;;;4.43;3.63;;;;;;;23.67;51.04;96137.34;5055049;28;20043;-55
2021/08/30 09:29:41;;;;;;;5.18;4.30;;;;;;;23.97;50.68;96135.31;5055043;28;20471;-55
2021/08/30 09:32:14;;;;;;;4.75;3.72;;;;;;;24.05;51.37;96139.06;5054891;28;20040;-55
2021/08/30 09:34:43;;;;;;;4.40;3.90;;;;;;;24.28;50.58;96139.44;5055000;28;20040;-56
2021/08/30 09:37:39;;;;;;;5.95;3.65;;;;;;;24.53;49.93;96134.25;5054981;28;20020;-57
2021/08/30 09:40:11;;;;;;;4.97;3.67;;;;;;;24.83;47.51;96136.66;5052928;28;20125;-54
2021/08/30 09:42:44;;;;;;;4.72;3.72;;;;;;;24.69;47.75;96140.72;5054695;28;20071;-54
2021/08/30 09:45:24;;;;;;;5.07;3.75;;;;;;;24.48;49.35;96133.91;5054894;28;20462;-56
2021/08/30 09:47:57;;;;;;;4.27;3.80;;;;;;;24.48;48.64;96144.59;5054863;28;20025;-55
2021/08/30 09:50:34;;;;;;;10.77;5.55;;;;;;;24.47;47.45;96143.75;5054906;28;20265;-57
2021/08/30 09:53:02;;;;;;;4.50;3.95;;;;;;;24.50;48.25;96141.78;5054644;28;20067;-56
2021/08/30 09:55:29;;;;;;;4.13;3.72;;;;;;;24.42;47.22;96135.38;5054785;28;20021;-59
2021/08/30 09:57:56;;;;;;;3.92;3.28;;;;;;;24.54;48.54;96135.97;5054688;28;20028;-58
2021/08/30 10:00:22;;;;;;;8.95;4.38;;;;;;;24.75;47.16;96137.44;5054408;28;20376;-57
2021/08/30 10:02:52;;;;;;;4.57;3.92;;;;;;;24.54;48.10;96138.63;5054463;28;20449;-56
2021/08/30 10:05:20;;;;;;;5.22;4.22;;;;;;;24.69;48.36;96140.72;5054690;28;20025;-57
2021/08/30 10:07:47;;;;;;;4.22;3.72;;;;;;;24.51;48.37;96135.44;5054691;28;20032;-56
2021/08/30 10:10:17;;;;;;;5.75;4.40;;;;;;;24.42;49.30;96142.53;5054501;28;20052;-57
2021/08/30 10:12:43;;;;;;;6.32;3.83;;;;;;;24.16;47.54;96140.66;5054396;28;20048;-57
2021/08/30 10:15:11;;;;;;;5.60;4.00;;;;;;;24.31;49.90;96131.13;5054146;28;20029;-57
2021/08/30 10:17:44;;;;;;;4.22;3.83;;;;;;;24.43;49.04;96130.84;5054182;28;20525;-55
2021/08/30 10:20:22;;;;;;;4.97;4.00;;;;;;;24.48;48.50;96128.56;5054069;28;20025;-56
2021/08/30 10:23:00;;;;;;;7.28;3.85;;;;;;;24.30;47.45;96139.28;5054080;28;20050;-58
2021/08/30 10:25:26;;;;;;;5.28;4.28;;;;;;;23.98;48.93;96128.13;5054006;28;20026;-59
2021/08/30 10:28:08;;;;;;;5.55;4.72;;;;;;;24.07;49.50;96132.56;5053814;28;20382;-59
2021/08/30 10:30:36;;;;;;;5.47;4.22;;;;;;;24.20;48.33;96128.69;5053812;28;20078;-57
2021/08/30 10:33:08;;;;;;;4.72;4.20;;;;;;;24.22;49.52;96127.53;5053970;28;20052;-59
2021/08/30 10:35:39;;;;;;;5.30;4.22;;;;;;;24.28;48.09;96126.06;5053871;28;20059;-55
2021/08/30 10:38:16;;;;;;;5.93;4.25;;;;;;;24.34;48.75;96129.97;5053811;28;20481;-55
2021/08/30 10:40:47;;;;;;;8.05;4.40;;;;;;;24.53;48.78;96128.09;5053468;28;20037;-56
2021/08/30 10:43:14;;;;;;;6.07;4.63;;;;;;;24.73;47.58;96129.56;5053809;28;20163;-57
2021/08/30 10:45:58;;;;;;;5.05;4.20;;;;;;;24.81;47.92;96122.59;5053669;28;20659;-55
2021/08/30 10:48:39;;;;;;;5.28;4.50;;;;;;;24.93;47.67;96140.09;5053632;28;20039;-56
2021/08/30 10:51:17;;;;;;;5.75;4.10;;;;;;;24.78;46.57;96134.44;5035575;28;20428;-57
2021/08/30 10:54:00;;;;;;;6.05;4.35;;;;;;;24.97;47.02;96136.09;5053486;28;20094;-57
2021/08/30 10:56:28;;;;;;;5.13;4.22;;;;;;;25.13;46.77;96130.97;5053482;28;20025;-54
2021/08/30 10:58:58;;;;;;;8.32;4.88;;;;;;;25.23;47.31;96126.34;5053463;28;20078;-56
2021/08/30 11:01:24;;;;;;;4.90;4.22;;;;;;;25.28;47.74;96129.34;5053014;28;20029;-54
2021/08/30 11:03:59;;;;;;;7.28;3.70;;;;;;;25.28;46.26;96118.66;5053211;28;20036;-57
2021/08/30 11:06:25;;;;;;;4.93;3.95;;;;;;;25.10;46.50;96127.63;5053266;28;20096;-55
2021/08/30 11:08:51;;;;;;;4.22;3.78;;;;;;;25.13;46.89;96122.94;5053400;28;20101;-57
2021/08/30 11:11:23;;;;;;;7.63;4.25;;;;;;;25.32;47.06;96127.22;5053329;28;20028;-55
2021/08/30 11:14:08;;;;;;;6.65;3.97;;;;;;;25.18;46.38;96125.97;5053504;28;20025;-56
2021/08/30 11:16:38;;;;;;;5.75;4.35;;;;;;;25.15;47.18;96128.97;5053141;28;20505;-57
2021/08/30 11:19:08;;;;;;;6.07;4.30;;;;;;;25.22;46.73;96128.16;5053225;28;20020;-55
2021/08/30 11:21:47;;;;;;;5.88;3.85;;;;;;;25.31;47.15;96126.34;5053060;28;20069;-58
2021/08/30 11:24:35;;;;;;;7.18;4.20;;;;;;;25.29;46.52;96130.22;5053074;28;20041;-57
2021/08/30 11:27:06;;;;;;;6.15;4.45;;;;;;;25.28;47.82;96132.03;5052990;28;20056;-56
2021/08/30 11:29:32;;;;;;;;;;;;;;;25.21;46.73;96128.31;5053446;28;20032;-58
2021/08/30 11:31:58;;;;;;;5.25;4.50;;;;;;;25.06;48.39;96120.06;5052842;28;19912;-56
2021/08/30 11:34:27;;;;;;;6.97;4.40;;;;;;;24.98;47.95;96123.53;5053046;28;20116;-57
2021/08/30 11:36:54;;;;;;;4.90;4.22;;;;;;;24.96;48.34;96122.88;5053074;28;20052;-57
2021/08/30 11:39:21;;;;;;;6.45;4.20;;;;;;;25.03;48.33;96115.03;5052956;28;20043;-55
2021/08/30 11:41:56;;;;;;;5.32;4.30;;;;;;;24.95;48.76;96118.53;5052766;28;20139;-57
2021/08/30 11:44:23;;;;;;;5.28;4.47;;;;;;;24.88;48.24;96125.47;5052935;28;20021;-56